Time;durP1;ratioP1;P1;durP2;ratioP2;P2;SDS_P1;SDS_P2;PMS_P1;PMS_P2;Temp;Humidity;BMP_temperature;BMP_pressure;BME280_temperature;BME280_humidity;BME280_pressure;Samples;Min_cycle;Max_cycle;Signal;HPM_P1;HPM_P2
2023/02/27 00:03:34;;;;;;;3.63;1.52;;;;;;;0.02;67.45;98384.47;10416146;28;20060;-78
2023/02/27 00:08:54;;;;;;;4.40;1.65;;;;;;;-0.10;66.97;98375.53;10415812;28;20045;-79
2023/02/27 00:14:15;;;;;;;4.40;1.60;;;;;;;-0.24;66.78;98373.88;10401881;28;20475;-79
2023/02/27 00:19:36;;;;;;;7.38;1.48;;;;;;;-0.37;67.87;98379.91;10428813;28;20060;-78
2023/02/27 00:24:57;;;;;;;5.43;1.70;;;;;;;-0.51;67.33;98375.47;10401504;28;20045;-79
2023/02/27 00:30:18;;;;;;;3.17;1.48;;;;;;;-0.62;67.25;98379.00;10401333;28;20040;-78
2023/02/27 00:35:38;;;;;;;2.80;1.20;;;;;;;-0.73;67.94;98379.78;10414664;28;20426;-78
2023/02/27 00:40:59;;;;;;;5.40;1.60;;;;;;;-0.78;67.96;98380.53;10400957;28;20660;-79
2023/02/27 00:46:20;;;;;;;3.85;1.13;;;;;;;-0.85;67.40;98386.56;10414569;28;20508;-79
2023/02/27 00:51:44;;;;;;;3.75;1.30;;;;;;;-0.89;67.46;98386.06;10401531;28;20060;-79
2023/02/27 00:57:05;;;;;;;4.05;1.40;;;;;;;-1.00;68.49;98380.59;10414265;28;20048;-79
2023/02/27 01:02:26;;;;;;;3.72;1.13;;;;;;;-1.00;67.99;98395.03;10400469;28;20102;-79
2023/02/27 01:07:48;;;;;;;3.75;1.20;;;;;;;-1.07;68.10;98392.06;10414068;28;20044;-78
2023/02/27 01:13:09;;;;;;;2.65;1.30;;;;;;;-1.11;67.85;98392.31;10413600;28;20056;-79
2023/02/27 01:18:31;;;;;;;6.38;1.17;;;;;;;-1.13;68.17;98396.81;10400469;28;20040;-79
2023/02/27 01:23:52;;;;;;;4.68;1.40;;;;;;;-1.14;67.97;98403.53;10405937;28;20056;-79
2023/02/27 01:29:14;;;;;;;5.30;1.40;;;;;;;-1.25;68.08;98398.81;10413667;28;20049;-79
2023/02/27 01:34:35;;;;;;;2.88;0.88;;;;;;;-1.33;67.80;98398.56;10413416;28;20091;-79
2023/02/27 01:39:56;;;;;;;2.70;1.13;;;;;;;-1.34;68.07;98396.34;10399844;28;20040;-78
2023/02/27 01:45:27;;;;;;;3.13;1.13;;;;;;;-1.41;68.02;98400.31;10413928;28;20095;-78
2023/02/27 01:51:31;;;;;;;2.72;1.15;;;;;;;-1.45;68.23;98411.53;10413039;28;20050;-78
2023/02/27 01:56:53;;;;;;;4.80;1.85;;;;;;;-1.51;67.96;98418.22;10399672;28;20077;-79
2023/02/27 02:02:18;;;;;;;4.10;1.35;;;;;;;-1.49;67.94;98413.00;10399173;28;20060;-79
2023/02/27 02:07:39;;;;;;;4.18;1.40;;;;;;;-1.53;68.85;98413.25;10412872;28;20044;-79
2023/02/27 02:13:00;;;;;;;4.53;1.48;;;;;;;-1.55;68.13;98429.41;10399078;28;20041;-79
2023/02/27 02:18:41;;;;;;;4.78;1.52;;;;;;;-1.60;68.49;98421.94;10443822;28;20048;-78
2023/02/27 02:24:49;;;;;;;4.93;1.40;;;;;;;-1.61;67.94;98427.94;10435958;28;20479;-78
2023/02/27 02:30:29;;;;;;;3.33;1.50;;;;;;;-1.65;68.67;98432.88;10241279;29;20043;-79
2023/02/27 02:36:23;;;;;;;4.53;1.38;;;;;;;-1.68;68.87;98433.88;10445225;28;20445;-79
2023/02/27 02:41:56;;;;;;;5.38;1.67;;;;;;;-1.70;68.90;98437.13;10432735;28;20328;-78
2023/02/27 02:47:35;;;;;;;6.38;1.70;;;;;;;-1.63;68.26;98441.38;10446434;28;20041;-79
2023/02/27 02:53:07;;;;;;;5.38;1.50;;;;;;;-1.43;68.68;98448.63;10446793;28;20380;-79
2023/02/27 02:58:31;;;;;;;5.93;2.00;;;;;;;-1.23;68.78;98446.38;10418857;28;20041;-78
2023/02/27 03:03:53;;;;;;;3.80;1.33;;;;;;;-1.05;68.79;98449.88;10431262;28;20547;-79
2023/02/27 03:09:29;;;;;;;4.35;1.70;;;;;;;-0.97;68.19;98451.59;10418758;28;20041;-78
2023/02/27 03:14:54;;;;;;;6.10;1.95;;;;;;;-0.89;68.48;98457.31;10445445;28;20140;-78
2023/02/27 03:20:23;;;;;;;5.37;1.80;;;;;;;-0.82;68.07;98459.56;10445150;28;20045;-79
2023/02/27 03:25:45;;;;;;;5.40;1.55;;;;;;;-0.78;67.90;98464.78;10404727;28;20271;-79
2023/02/27 03:31:08;;;;;;;5.07;2.08;;;;;;;-0.74;67.47;98463.28;10417037;28;20040;-79
2023/02/27 03:37:08;;;;;;;6.07;1.60;;;;;;;-0.72;67.39;98466.28;10430665;28;20060;-78
2023/02/27 03:42:29;;;;;;;4.13;1.33;;;;;;;-0.68;67.69;98476.97;10381589;28;20063;-79
2023/02/27 03:47:53;;;;;;;5.47;1.87;;;;;;;-0.76;67.44;98484.22;10444572;28;20048;-79
2023/02/27 03:53:32;;;;;;;6.45;1.85;;;;;;;-0.91;67.40;98498.19;10402594;28;20065;-79
2023/02/27 03:58:53;;;;;;;6.75;1.90;;;;;;;-0.83;67.41;98499.19;10443288;28;20052;-79
2023/02/27 04:04:15;;;;;;;5.22;1.63;;;;;;;-0.83;67.10;98493.69;10402254;28;20068;-79
2023/02/27 04:10:14;;;;;;;5.45;1.77;;;;;;;-0.83;67.28;98492.97;10423657;28;20045;-79
2023/02/27 04:16:07;;;;;;;5.47;1.75;;;;;;;-0.85;67.27;98503.69;10415316;28;20487;-79
2023/02/27 04:21:47;;;;;;;7.35;1.50;;;;;;;-0.91;67.31;98501.69;10415134;28;20049;-79
2023/02/27 04:27:23;;;;;;;4.00;1.38;;;;;;;-0.88;67.17;98513.63;10420479;28;20114;-79
2023/02/27 04:32:54;;;;;;;7.45;1.63;;;;;;;-0.90;67.57;98516.88;10412803;28;20048;-78
2023/02/27 04:38:45;;;;;;;4.80;1.55;;;;;;;-0.93;67.08;98509.66;10428433;28;20041;-78
2023/02/27 04:44:06;;;;;;;6.70;1.77;;;;;;;-0.89;67.62;98512.88;10428358;28;20044;-79
2023/02/27 04:49:30;;;;;;;7.20;2.00;;;;;;;-0.92;67.21;98505.66;10428382;28;20052;-79
2023/02/27 04:54:55;;;;;;;6.73;2.17;;;;;;;-0.94;67.25;98508.16;10428145;28;20044;-79
2023/02/27 05:00:16;;;;;;;4.47;1.70;;;;;;;-1.03;67.27;98502.19;10414633;28;20041;-79
2023/02/27 05:05:37;;;;;;;4.28;1.70;;;;;;;-1.23;67.08;98511.38;10400495;28;20402;-79
2023/02/27 05:11:14;;;;;;;5.65;1.52;;;;;;;-1.46;67.48;98511.31;10414038;28;20056;-78
2023/02/27 05:16:41;;;;;;;5.15;1.48;;;;;;;-1.70;67.54;98519.25;10413836;28;20041;-80
2023/02/27 05:22:05;;;;;;;4.15;1.60;;;;;;;-1.89;68.01;98516.19;10428097;28;20061;-79
2023/02/27 05:27:29;;;;;;;6.60;1.83;;;;;;;-2.03;68.23;98519.84;10440733;28;20502;-79
2023/02/27 05:32:56;;;;;;;6.65;1.63;;;;;;;-2.12;67.50;98520.81;10432947;28;20042;-79
2023/02/27 05:38:28;;;;;;;2.58;1.30;;;;;;;-2.20;67.90;98533.47;10396429;28;20041;-79
2023/02/27 05:43:55;;;;;;;3.85;1.40;;;;;;;-2.22;68.01;98535.94;10384559;28;20037;-79
2023/02/27 05:49:26;;;;;;;7.28;1.52;;;;;;;-2.14;67.92;98542.44;10368919;28;20043;-79
2023/02/27 05:54:49;;;;;;;7.45;1.60;;;;;;;-1.93;68.35;98550.47;10380774;28;20041;-79
2023/02/27 06:00:20;;;;;;;3.33;1.42;;;;;;;-1.72;68.12;98560.06;10380357;28;20498;-79
2023/02/27 06:05:41;;;;;;;6.80;1.90;;;;;;;-1.46;67.83;98566.09;10390377;28;20397;-79
2023/02/27 06:11:02;;;;;;;5.20;1.95;;;;;;;-1.21;67.78;98560.94;10378671;28;20053;-80
2023/02/27 06:16:24;;;;;;;4.35;1.90;;;;;;;-0.95;66.93;98560.75;10392352;28;20033;-79
2023/02/27 06:21:46;;;;;;;6.50;1.75;;;;;;;-0.83;66.55;98572.44;10363586;28;20111;-79
2023/02/27 06:27:07;;;;;;;7.22;1.65;;;;;;;-0.80;66.37;98571.44;10390626;28;20029;-79
2023/02/27 06:32:28;;;;;;;9.52;2.33;;;;;;;-0.72;66.26;98575.19;10376382;28;20060;-78
2023/02/27 06:37:49;;;;;;;6.55;2.03;;;;;;;-0.57;66.80;98580.44;10390252;28;20045;-79
2023/02/27 06:43:10;;;;;;;4.30;1.70;;;;;;;-0.53;65.36;98580.94;10376506;28;20038;-79
2023/02/27 06:48:31;;;;;;;4.53;1.67;;;;;;;-0.38;65.29;98590.41;10392470;28;20034;-79
2023/02/27 06:53:52;;;;;;;8.13;2.20;;;;;;;-0.23;64.77;98600.34;10360189;28;20091;-79
2023/02/27 06:59:13;;;;;;;4.38;2.00;;;;;;;-0.13;64.72;98609.81;10376099;28;20060;-79
2023/02/27 07:04:34;;;;;;;6.32;2.08;;;;;;;-0.11;64.66;98610.81;10370929;28;20060;-79
2023/02/27 07:09:55;;;;;;;9.27;3.47;;;;;;;-0.06;64.78;98623.03;10368826;28;20396;-80
2023/02/27 07:15:16;;;;;;;4.55;1.45;;;;;;;0.24;64.13;98615.75;10376425;28;20053;-79
2023/02/27 07:20:37;;;;;;;4.30;1.80;;;;;;;0.44;63.37;98614.66;10374748;28;20037;-78
2023/02/27 07:25:58;;;;;;;5.30;1.75;;;;;;;0.74;63.48;98625.78;10374992;28;20392;-79
2023/02/27 07:31:18;;;;;;;4.75;1.83;;;;;;;0.96;63.91;98624.91;10376603;28;20042;-79
2023/02/27 07:36:42;;;;;;;4.40;1.58;;;;;;;1.15;62.47;98630.56;10376638;28;20049;-79
2023/02/27 07:42:04;;;;;;;6.65;1.90;;;;;;;1.46;61.50;98637.63;10390133;28;20056;-79
2023/02/27 07:47:26;;;;;;;5.55;1.58;;;;;;;2.05;61.27;98640.88;10376463;28;20095;-79
2023/02/27 07:52:48;;;;;;;5.70;2.00;;;;;;;2.60;61.10;98647.81;10389522;28;20049;-79
2023/02/27 07:58:09;;;;;;;5.97;2.05;;;;;;;3.87;57.30;98643.03;10416440;28;20068;-80
2023/02/27 08:03:29;;;;;;;6.05;2.40;;;;;;;6.51;57.30;98647.84;10415973;28;20080;-79
2023/02/27 08:08:50;;;;;;;6.18;3.17;;;;;;;11.60;54.64;98630.91;10431937;28;20120;-79
2023/02/27 08:14:11;;;;;;;6.57;2.00;;;;;;;13.87;50.73;98654.50;10435464;28;20526;-78
2023/02/27 08:19:32;;;;;;;5.10;2.40;;;;;;;16.43;43.45;98652.56;10426644;28;20099;-79
2023/02/27 08:24:53;;;;;;;5.00;1.90;;;;;;;18.16;38.71;98651.63;10437441;28;20091;-80
2023/02/27 08:30:15;;;;;;;4.88;2.15;;;;;;;23.01;27.75;98660.97;10414817;28;20065;-79
2023/02/27 08:35:36;;;;;;;6.28;1.73;;;;;;;19.21;31.66;98663.97;10428623;28;20490;-81
2023/02/27 08:40:57;;;;;;;4.68;1.73;;;;;;;25.45;26.53;98672.88;10442102;28;20410;-80
2023/02/27 08:46:18;;;;;;;3.40;1.35;;;;;;;27.75;20.09;98668.66;10401172;28;20068;-82
2023/02/27 08:51:39;;;;;;;3.05;1.40;;;;;;;25.32;17.36;98669.03;10395544;28;20552;-80
2023/02/27 08:57:00;;;;;;;3.78;1.52;;;;;;;18.67;20.97;98678.97;10399805;28;20041;-79
2023/02/27 09:02:25;;;;;;;3.78;1.23;;;;;;;13.53;24.50;98675.28;10413869;28;20052;-78
2023/02/27 09:07:46;;;;;;;5.80;1.90;;;;;;;11.37;26.67;98681.53;10424540;28;20475;-79
2023/02/27 09:13:07;;;;;;;4.43;1.80;;;;;;;9.88;28.15;98687.44;10451080;28;20044;-78
2023/02/27 09:18:28;;;;;;;5.90;1.73;;;;;;;9.31;29.34;98694.44;10407895;28;20403;-78
2023/02/27 09:23:49;;;;;;;6.07;1.75;;;;;;;9.19;30.53;98690.59;10423225;28;20069;-78
2023/02/27 09:29:10;;;;;;;4.05;1.40;;;;;;;9.53;30.01;98687.25;10444992;28;20166;-79
2023/02/27 09:34:30;;;;;;;4.85;1.83;;;;;;;10.24;29.96;98695.38;10446287;28;20041;-78
2023/02/27 09:39:51;;;;;;;4.43;1.60;;;;;;;11.49;29.65;98698.53;10431231;28;20037;-78
2023/02/27 09:45:23;;;;;;;5.68;1.80;;;;;;;13.21;28.64;98698.94;10430993;28;20052;-78
2023/02/27 09:50:46;;;;;;;3.58;1.92;;;;;;;15.89;27.64;98696.53;10440897;28;20072;-80
2023/02/27 09:56:25;;;;;;;5.67;1.67;;;;;;;22.83;23.24;98704.50;10421122;28;20037;-81
2023/02/27 10:01:57;;;;;;;2.88;1.58;;;;;;;28.58;17.27;98698.44;10448567;28;20072;-81
2023/02/27 10:07:30;;;;;;;3.95;1.50;;;;;;;29.34;15.88;98711.41;10421552;28;20051;-80
2023/02/27 10:12:57;;;;;;;5.53;1.10;;;;;;;23.47;16.66;98704.50;10434103;28;20048;-79
2023/02/27 10:18:24;;;;;;;3.80;0.90;;;;;;;20.33;18.24;98696.72;10447778;28;20047;-79
2023/02/27 10:24:01;;;;;;;1.65;0.60;;;;;;;23.19;16.87;98697.88;10435142;28;20507;-80
2023/02/27 10:29:32;;;;;;;1.88;0.60;;;;;;;25.62;13.88;98691.88;10433507;28;20483;-80
2023/02/27 10:34:57;;;;;;;6.22;1.30;;;;;;;25.66;15.57;98692.66;10419960;28;20052;-80
2023/02/27 10:40:19;;;;;;;2.03;0.80;;;;;;;27.96;13.53;98693.34;10431834;28;20045;-80
2023/02/27 10:45:41;;;;;;;;;;;;;;;24.01;12.24;98695.44;10433710;28;20052;-79
2023/02/27 10:51:22;;;;;;;5.60;0.70;;;;;;;20.56;14.28;98696.38;10446962;28;19928;-78
2023/02/27 10:57:29;;;;;;;1.88;0.70;;;;;;;20.23;14.61;98694.91;10432588;28;20064;-79
2023/02/27 11:02:51;;;;;;;1.88;0.47;;;;;;;17.56;15.92;98688.59;10423947;28;20076;-78
2023/02/27 11:08:19;;;;;;;;;;;;;;;15.22;17.81;98686.66;10410124;28;20045;-80
2023/02/27 11:13:43;;;;;;;1.92;0.80;;;;;;;13.21;18.37;98684.91;10445602;28;19928;-77
2023/02/27 11:19:05;;;;;;;4.25;0.85;;;;;;;11.29;20.29;98677.34;10433386;28;20449;-76
2023/02/27 11:24:27;;;;;;;1.73;0.60;;;;;;;9.81;21.60;98680.59;10424293;28;20045;-79
2023/02/27 11:29:58;;;;;;;1.83;0.63;;;;;;;9.01;22.59;98677.84;10419188;28;20056;-78
2023/02/27 11:35:33;;;;;;;2.83;0.60;;;;;;;8.70;23.46;98682.75;10410995;28;20048;-78
2023/02/27 11:40:55;;;;;;;2.63;0.40;;;;;;;8.48;22.87;98673.13;10396448;28;20038;-78
2023/02/27 11:46:20;;;;;;;1.33;0.50;;;;;;;8.28;24.98;98678.31;10443838;28;20045;-78
2023/02/27 11:52:10;;;;;;;3.90;0.70;;;;;;;8.25;24.33;98668.31;10404367;28;20377;-78
2023/02/27 11:57:34;;;;;;;3.03;0.50;;;;;;;7.98;25.16;98667.19;10382032;28;20476;-79
2023/02/27 12:03:15;;;;;;;1.90;0.60;;;;;;;7.58;25.41;98669.75;10366703;28;20064;-78
2023/02/27 12:08:43;;;;;;;2.95;0.52;;;;;;;7.09;26.24;98660.34;10362306;28;20096;-78
2023/02/27 12:14:14;;;;;;;3.90;0.70;;;;;;;6.74;25.76;98658.31;10353820;28;20049;-78
2023/02/27 12:19:39;;;;;;;1.92;0.80;;;;;;;6.55;26.42;98664.88;10378309;28;20037;-78
2023/02/27 12:25:06;;;;;;;1.67;0.55;;;;;;;5.84;28.61;98660.63;10365806;28;20041;-78
2023/02/27 12:30:34;;;;;;;1.95;0.80;;;;;;;5.60;27.58;98658.19;10367630;28;20480;-78
2023/02/27 12:35:58;;;;;;;1.83;0.63;;;;;;;5.35;29.16;98666.78;10364209;28;20038;-78
2023/02/27 12:41:22;;;;;;;;;;;;;;;5.22;32.56;98669.59;10379609;28;20042;-77
2023/02/27 12:46:49;;;;;;;2.75;0.95;;;;;;;5.27;30.88;98677.03;10370863;28;19929;-77
2023/02/27 12:52:15;;;;;;;3.50;1.10;;;;;;;5.51;31.08;98669.72;10380608;28;20049;-78
2023/02/27 12:58:09;;;;;;;2.90;0.88;;;;;;;5.79;31.87;98674.59;10366261;28;20042;-76
2023/02/27 13:03:53;;;;;;;2.33;0.45;;;;;;;6.09;32.67;98666.59;10385235;28;20046;-76
2023/02/27 13:09:28;;;;;;;2.77;0.70;;;;;;;6.41;31.70;98666.25;10413862;28;20059;-77
2023/02/27 13:15:18;;;;;;;2.47;0.77;;;;;;;6.74;31.99;98666.63;10382989;28;20069;-77
2023/02/27 13:20:49;;;;;;;3.10;0.50;;;;;;;7.24;31.47;98658.88;10399598;28;20387;-78
2023/02/27 13:26:40;;;;;;;5.35;0.90;;;;;;;7.34;31.67;98657.09;10385857;28;20034;-77
2023/02/27 13:32:14;;;;;;;4.18;0.60;;;;;;;7.13;31.50;98649.59;10395421;28;20034;-77
2023/02/27 13:38:00;;;;;;;2.05;0.68;;;;;;;7.03;32.04;98648.63;10386076;28;20044;-78
2023/02/27 13:43:31;;;;;;;1.50;0.60;;;;;;;6.78;31.34;98655.94;10398810;28;20041;-77
2023/02/27 13:49:06;;;;;;;1.27;0.47;;;;;;;6.65;32.11;98650.50;10396840;28;20038;-77
2023/02/27 13:54:35;;;;;;;3.13;0.75;;;;;;;6.34;32.21;98661.41;10397843;28;20041;-76
2023/02/27 14:00:03;;;;;;;5.10;1.23;;;;;;;5.82;34.89;98665.22;10386213;28;20042;-76
2023/02/27 14:05:44;;;;;;;3.55;1.13;;;;;;;5.44;34.18;98663.56;10358096;28;20488;-79
2023/02/27 14:11:28;;;;;;;2.75;1.25;;;;;;;5.00;34.96;98681.13;10334858;28;20042;-76
2023/02/27 14:16:50;;;;;;;3.95;0.80;;;;;;;4.96;36.29;98681.47;10352564;28;20479;-77
2023/02/27 14:22:11;;;;;;;2.72;0.90;;;;;;;5.01;39.23;98677.06;10366561;28;20038;-76
2023/02/27 14:27:43;;;;;;;3.88;1.10;;;;;;;5.00;38.14;98681.13;10380597;28;20407;-77
2023/02/27 14:33:24;;;;;;;2.03;0.90;;;;;;;4.95;39.51;98677.22;10400205;28;20403;-77
2023/02/27 14:39:00;;;;;;;4.68;1.30;;;;;;;4.79;42.61;98675.50;10408698;28;20042;-77
2023/02/27 14:44:26;;;;;;;2.28;0.80;;;;;;;4.69;39.46;98680.00;10406281;28;20049;-78
2023/02/27 14:49:47;;;;;;;3.17;0.90;;;;;;;4.82;40.01;98689.00;10406542;28;20095;-77
2023/02/27 14:55:21;;;;;;;1.92;0.70;;;;;;;4.75;39.74;98684.16;10392084;28;20041;-78
2023/02/27 15:01:05;;;;;;;4.55;1.20;;;;;;;4.42;40.30;98690.28;10386040;28;20038;-78
2023/02/27 15:06:29;;;;;;;2.58;1.00;;;;;;;4.06;40.83;98687.16;10339428;28;20115;-78
2023/02/27 15:11:52;;;;;;;2.60;1.20;;;;;;;3.84;41.74;98691.03;10348961;28;20046;-78
2023/02/27 15:17:25;;;;;;;3.30;1.08;;;;;;;3.55;42.03;98685.19;10405863;28;20038;-78
2023/02/27 15:22:46;;;;;;;2.88;1.13;;;;;;;3.35;42.35;98686.47;10376807;28;20084;-78
2023/02/27 15:28:19;;;;;;;2.92;1.50;;;;;;;3.43;44.15;98681.84;10376702;28;20045;-78
2023/02/27 15:33:40;;;;;;;3.30;1.13;;;;;;;4.14;43.91;98683.22;10376877;28;20045;-78
2023/02/27 15:39:02;;;;;;;4.30;1.17;;;;;;;5.10;42.89;98693.25;10375369;28;20042;-78
2023/02/27 15:44:25;;;;;;;2.15;0.90;;;;;;;5.61;42.39;98687.38;10360115;28;20056;-78
2023/02/27 15:49:47;;;;;;;4.30;1.20;;;;;;;5.13;42.78;98694.97;10376229;28;20049;-78
2023/02/27 15:55:13;;;;;;;3.42;1.40;;;;;;;4.28;44.29;98703.38;10348508;28;20046;-78
2023/02/27 16:00:34;;;;;;;3.15;1.20;;;;;;;3.53;44.52;98703.53;10348252;28;20488;-77
2023/02/27 16:05:55;;;;;;;2.78;1.48;;;;;;;3.13;44.07;98717.88;10382270;28;20420;-77
2023/02/27 16:11:18;;;;;;;3.53;1.48;;;;;;;2.85;45.20;98720.97;10375057;28;20541;-77
2023/02/27 16:16:39;;;;;;;6.00;1.35;;;;;;;2.47;47.18;98720.09;10388741;28;20041;-77
2023/02/27 16:22:12;;;;;;;4.70;1.90;;;;;;;2.32;47.85;98730.78;10388190;28;20037;-77
2023/02/27 16:27:33;;;;;;;5.35;2.45;;;;;;;2.15;47.13;98732.94;10401523;28;20053;-76
2023/02/27 16:33:00;;;;;;;5.88;1.90;;;;;;;2.07;47.00;98740.25;10388124;28;20045;-77
2023/02/27 16:38:21;;;;;;;3.60;1.88;;;;;;;1.87;49.02;98757.94;10387026;28;20046;-77
2023/02/27 16:43:43;;;;;;;6.07;1.50;;;;;;;1.82;49.31;98759.47;10387352;28;20041;-77
2023/02/27 16:49:04;;;;;;;4.43;1.35;;;;;;;1.83;48.63;98763.69;10387540;28;20045;-77
2023/02/27 16:54:39;;;;;;;4.55;1.60;;;;;;;1.83;50.52;98769.22;10377207;28;20049;-76
2023/02/27 17:00:00;;;;;;;2.97;1.33;;;;;;;1.91;51.24;98770.16;10387197;28;20041;-76
2023/02/27 17:05:22;;;;;;;3.15;1.13;;;;;;;1.95;49.32;98770.66;10386585;28;20053;-77
2023/02/27 17:10:43;;;;;;;4.22;1.77;;;;;;;2.01;49.91;98779.59;10386567;28;20042;-79
2023/02/27 17:16:05;;;;;;;4.65;1.23;;;;;;;2.05;50.44;98782.09;10386630;28;20038;-77
2023/02/27 17:21:26;;;;;;;2.53;1.25;;;;;;;2.05;50.83;98773.09;10387021;28;20494;-76
2023/02/27 17:26:47;;;;;;;6.13;1.55;;;;;;;1.95;52.49;98780.91;10386705;28;20041;-77
2023/02/27 17:32:12;;;;;;;6.30;1.63;;;;;;;1.97;50.61;98783.91;10374542;28;20045;-76
2023/02/27 17:37:33;;;;;;;2.17;1.13;;;;;;;1.85;51.22;98790.75;10386455;28;20045;-75
2023/02/27 17:42:54;;;;;;;4.40;1.65;;;;;;;1.61;52.15;98796.88;10372762;28;20454;-75
2023/02/27 17:48:15;;;;;;;4.28;2.05;;;;;;;1.60;51.05;98803.63;10376429;28;20503;-78
2023/02/27 17:53:35;;;;;;;4.97;1.90;;;;;;;1.59;52.28;98794.63;10379838;28;20034;-77
2023/02/27 17:58:57;;;;;;;6.18;2.00;;;;;;;1.58;51.22;98806.91;10401766;28;20049;-78
2023/02/27 18:04:18;;;;;;;5.57;2.65;;;;;;;1.63;51.54;98799.88;10353552;28;20049;-76
2023/02/27 18:09:39;;;;;;;4.65;2.13;;;;;;;1.69;52.14;98804.09;10325832;28;20042;-76
2023/02/27 18:15:00;;;;;;;5.68;2.72;;;;;;;1.73;52.60;98810.06;10339118;28;20092;-77
2023/02/27 18:20:21;;;;;;;6.55;2.05;;;;;;;1.74;52.76;98805.34;10339133;28;20042;-78
2023/02/27 18:25:41;;;;;;;2.60;1.60;;;;;;;1.76;52.90;98813.81;10352082;28;20053;-76
2023/02/27 18:31:03;;;;;;;5.38;2.47;;;;;;;1.65;53.28;98820.13;10338618;28;20447;-78
2023/02/27 18:36:24;;;;;;;4.78;2.20;;;;;;;1.53;53.35;98815.19;10338685;28;20100;-76
2023/02/27 18:41:46;;;;;;;6.53;3.33;;;;;;;1.40;53.33;98824.75;10338100;28;20444;-76
2023/02/27 18:47:08;;;;;;;7.63;3.17;;;;;;;1.39;53.72;98828.75;10338315;28;20377;-76
2023/02/27 18:52:30;;;;;;;5.90;3.38;;;;;;;1.44;53.89;98833.47;10407291;28;20091;-76
2023/02/27 18:57:50;;;;;;;7.32;3.55;;;;;;;1.42;53.87;98847.00;10418060;28;20041;-76
2023/02/27 19:03:11;;;;;;;5.78;2.63;;;;;;;1.52;53.99;98839.19;10418456;28;20061;-76
2023/02/27 19:08:33;;;;;;;5.63;3.33;;;;;;;1.59;54.44;98846.94;10405234;28;20399;-76
2023/02/27 19:13:55;;;;;;;7.18;3.53;;;;;;;1.65;54.77;98846.91;10431789;28;20048;-77
2023/02/27 19:19:16;;;;;;;5.88;3.17;;;;;;;1.64;54.68;98857.19;10418139;28;20049;-78
2023/02/27 19:24:37;;;;;;;7.30;4.05;;;;;;;1.58;54.14;98856.44;10417912;28;20087;-77
2023/02/27 19:30:00;;;;;;;8.43;4.90;;;;;;;1.50;54.29;98849.97;10417988;28;20049;-77
2023/02/27 19:35:21;;;;;;;8.85;4.70;;;;;;;1.41;54.86;98859.25;10418000;28;20422;-78
2023/02/27 19:40:42;;;;;;;9.38;4.60;;;;;;;1.48;55.10;98860.75;10417174;28;20380;-76
2023/02/27 19:46:07;;;;;;;9.13;4.85;;;;;;;1.52;55.42;98865.97;10430610;28;20056;-76
2023/02/27 19:51:28;;;;;;;9.65;4.93;;;;;;;1.46;55.24;98859.75;10393149;28;20041;-76
2023/02/27 19:56:49;;;;;;;10.73;5.10;;;;;;;1.44;55.10;98866.50;10375500;28;20042;-76
2023/02/27 20:02:10;;;;;;;10.63;5.40;;;;;;;1.43;55.82;98869.75;10388934;28;20580;-75
2023/02/27 20:07:31;;;;;;;12.32;5.28;;;;;;;1.49;55.17;98872.50;10375418;28;20411;-76
2023/02/27 20:12:52;;;;;;;9.70;4.97;;;;;;;1.40;55.28;98877.03;10374845;28;20054;-76
2023/02/27 20:18:13;;;;;;;11.43;5.28;;;;;;;1.36;55.60;98879.28;10361478;28;20052;-76
2023/02/27 20:23:35;;;;;;;11.23;6.00;;;;;;;1.37;55.23;98875.28;10369079;28;20545;-76
2023/02/27 20:29:11;;;;;;;11.48;5.72;;;;;;;1.37;56.27;98880.78;10385273;28;20045;-76
2023/02/27 20:34:32;;;;;;;11.40;5.28;;;;;;;1.42;55.71;98879.25;10443253;28;20479;-75
2023/02/27 20:39:53;;;;;;;9.85;5.55;;;;;;;1.43;56.50;98880.75;10400569;28;20052;-76
2023/02/27 20:45:14;;;;;;;10.00;4.75;;;;;;;1.43;56.45;98891.75;10374144;28;20049;-77
2023/02/27 20:50:37;;;;;;;12.40;4.90;;;;;;;1.38;55.34;98884.28;10375006;28;20038;-76
2023/02/27 20:55:58;;;;;;;7.75;3.63;;;;;;;1.31;56.25;98879.31;10373776;28;20042;-76
2023/02/27 21:01:19;;;;;;;10.90;4.38;;;;;;;1.31;56.34;98884.81;10373407;28;20045;-77
2023/02/27 21:06:40;;;;;;;10.38;4.20;;;;;;;1.34;56.30;98881.78;10386898;28;20048;-76
2023/02/27 21:12:01;;;;;;;7.40;3.63;;;;;;;1.28;56.17;98885.81;10384135;28;20495;-78
2023/02/27 21:17:23;;;;;;;9.48;4.47;;;;;;;1.25;56.28;98892.31;10372955;28;20041;-76
2023/02/27 21:22:44;;;;;;;11.85;4.65;;;;;;;1.24;56.43;98885.31;10376734;28;20119;-76
2023/02/27 21:28:05;;;;;;;10.68;4.78;;;;;;;1.20;56.83;98882.84;10381486;28;20049;-76
2023/02/27 21:33:27;;;;;;;10.20;4.95;;;;;;;1.20;56.71;98887.59;10393460;28;20056;-76
2023/02/27 21:38:48;;;;;;;9.88;4.35;;;;;;;1.18;57.68;98888.09;10381191;28;20045;-76
2023/02/27 21:44:30;;;;;;;9.43;4.82;;;;;;;1.12;57.85;98885.34;10395343;28;20049;-76
2023/02/27 21:49:55;;;;;;;10.07;4.63;;;;;;;1.08;56.68;98884.84;10406885;28;20049;-76
2023/02/27 21:55:16;;;;;;;8.05;4.47;;;;;;;1.03;57.15;98887.59;10388059;28;20103;-76
2023/02/27 22:00:37;;;;;;;10.32;4.43;;;;;;;1.00;56.73;98877.63;10405497;28;20403;-77
2023/02/27 22:05:57;;;;;;;9.45;4.00;;;;;;;0.91;56.94;98877.88;10365536;28;20127;-76
2023/02/27 22:11:18;;;;;;;9.38;4.32;;;;;;;0.85;57.42;98881.38;10391899;28;20100;-76
2023/02/27 22:16:39;;;;;;;9.23;4.22;;;;;;;0.83;56.92;98869.38;10392708;28;20138;-76
2023/02/27 22:22:00;;;;;;;7.25;4.10;;;;;;;0.92;56.94;98873.88;10393077;28;20408;-76
2023/02/27 22:27:21;;;;;;;8.60;4.38;;;;;;;0.96;57.50;98871.63;10379178;28;20045;-77
2023/02/27 22:32:42;;;;;;;13.07;5.68;;;;;;;0.90;57.53;98874.38;10391514;28;20045;-76
2023/02/27 22:38:03;;;;;;;8.52;4.28;;;;;;;0.90;56.95;98873.63;10392415;28;20045;-76
2023/02/27 22:43:24;;;;;;;10.35;5.00;;;;;;;0.88;57.03;98870.66;10378632;28;20041;-76
2023/02/27 22:48:46;;;;;;;7.85;3.97;;;;;;;0.79;57.20;98875.16;10392169;28;20046;-76
2023/02/27 22:54:11;;;;;;;8.48;4.13;;;;;;;0.77;57.46;98872.16;10392064;28;20381;-76
2023/02/27 22:59:32;;;;;;;8.02;4.38;;;;;;;0.66;57.24;98874.88;10375476;28;20060;-76
2023/02/27 23:04:53;;;;;;;9.23;4.35;;;;;;;0.64;57.92;98871.16;10392114;28;20054;-76
2023/02/27 23:10:14;;;;;;;9.35;4.32;;;;;;;0.69;57.43;98873.16;10377573;28;20044;-76
2023/02/27 23:15:37;;;;;;;9.25;4.75;;;;;;;0.72;57.30;98881.16;10377661;28;20053;-76
2023/02/27 23:21:02;;;;;;;9.57;4.82;;;;;;;0.65;58.35;98875.41;10377445;28;20092;-76
2023/02/27 23:26:23;;;;;;;10.15;4.47;;;;;;;0.63;57.69;98877.91;10404438;28;20042;-76
2023/02/27 23:31:44;;;;;;;7.43;4.43;;;;;;;0.64;57.79;98880.13;10390845;28;20045;-76
2023/02/27 23:37:05;;;;;;;8.95;4.47;;;;;;;0.67;57.70;98884.63;10390096;28;20050;-76
2023/02/27 23:48:08;;;;;;;10.43;4.50;;;;;;;0.59;57.78;98880.91;10392456;28;20052;-76
2023/02/27 23:53:29;;;;;;;8.90;4.15;;;;;;;0.51;57.37;98869.66;10389629;28;20052;-76
2023/02/27 23:59:01;;;;;;;9.30;5.22;;;;;;;0.47;58.48;98876.63;10375731;28;20045;-76
